Time;durP1;ratioP1;P1;durP2;ratioP2;P2;SDS_P1;SDS_P2;PMS_P1;PMS_P2;Temp;Humidity;BMP_temperature;BMP_pressure;BME280_temperature;BME280_humidity;BME280_pressure;Samples;Min_cycle;Max_cycle;Signal;HPM_P1;HPM_P2
2022/04/16 00:01:09;;;;;;;7.60;3.90;;;10.40;99.90;;;;;;4979083;28;20039;-67
2022/04/16 00:03:35;;;;;;;6.75;3.38;;;10.40;99.90;;;;;;4980983;28;20045;-67
2022/04/16 00:06:01;;;;;;;7.57;4.03;;;10.40;99.90;;;;;;4970103;28;20031;-68
2022/04/16 00:08:28;;;;;;;7.22;4.18;;;10.30;99.90;;;;;;4977417;28;20067;-68
2022/04/16 00:10:54;;;;;;;9.77;3.70;;;10.30;99.90;;;;;;4979723;28;20261;-67
2022/04/16 00:13:21;;;;;;;8.25;3.85;;;10.30;99.90;;;;;;4978847;28;20482;-67
2022/04/16 00:15:49;;;;;;;7.47;3.88;;;10.30;99.90;;;;;;4969852;28;20111;-67
2022/04/16 00:18:15;;;;;;;6.28;3.33;;;10.20;99.90;;;;;;4981514;28;20110;-67
2022/04/16 00:20:41;;;;;;;7.80;4.05;;;10.20;99.90;;;;;;4983244;28;20042;-68
2022/04/16 00:23:07;;;;;;;8.40;3.65;;;10.20;99.90;;;;;;4982600;28;20582;-66
2022/04/16 00:25:34;;;;;;;7.05;3.95;;;10.20;99.90;;;;;;4984517;28;20035;-67
2022/04/16 00:28:01;;;;;;;8.52;4.30;;;10.10;99.90;;;;;;4972198;28;20031;-68
2022/04/16 00:30:26;;;;;;;8.38;3.40;;;10.20;99.90;;;;;;4981993;28;20070;-66
2022/04/16 00:32:55;;;;;;;7.55;3.60;;;10.20;99.90;;;;;;4977004;28;20026;-67
2022/04/16 00:35:21;;;;;;;8.13;4.25;;;10.20;99.90;;;;;;4985331;28;20529;-67
2022/04/16 00:37:47;;;;;;;8.30;4.43;;;10.10;99.90;;;;;;4982043;28;20055;-67
2022/04/16 00:40:13;;;;;;;8.45;3.97;;;10.00;99.90;;;;;;4973247;28;20062;-67
2022/04/16 00:42:39;;;;;;;7.43;3.78;;;10.10;99.90;;;;;;4976967;28;20026;-66
2022/04/16 00:45:06;;;;;;;5.90;3.30;;;10.00;99.90;;;;;;4972108;28;20030;-66
2022/04/16 00:47:32;;;;;;;6.63;3.05;;;10.00;99.90;;;;;;4973870;28;20027;-68
2022/04/16 00:49:58;;;;;;;7.53;4.28;;;9.90;99.90;;;;;;4971797;28;20042;-67
2022/04/16 00:52:25;;;;;;;8.48;4.60;;;9.90;99.90;;;;;;4973391;28;20038;-65
2022/04/16 00:54:51;;;;;;;7.00;3.40;;;9.90;99.90;;;;;;4983949;28;20033;-70
2022/04/16 00:57:17;;;;;;;12.35;5.07;;;9.90;99.90;;;;;;4981638;28;20101;-67
2022/04/16 00:59:43;;;;;;;7.47;3.85;;;9.90;99.90;;;;;;4983709;28;20043;-65
2022/04/16 01:02:10;;;;;;;8.65;4.55;;;9.80;99.90;;;;;;4986575;28;20038;-66
2022/04/16 01:04:35;;;;;;;8.75;4.65;;;9.70;99.90;;;;;;4981317;28;20038;-67
2022/04/16 01:07:01;;;;;;;9.32;4.28;;;9.70;99.90;;;;;;4983720;28;20045;-67
2022/04/16 01:09:27;;;;;;;8.32;4.15;;;9.60;99.90;;;;;;4981188;28;20057;-67
2022/04/16 01:11:52;;;;;;;9.00;4.05;;;9.60;99.90;;;;;;4983143;28;20038;-67
2022/04/16 01:14:19;;;;;;;8.10;4.30;;;9.50;99.90;;;;;;4981492;28;20026;-66
2022/04/16 01:16:45;;;;;;;9.00;4.32;;;9.60;99.90;;;;;;4972841;28;20039;-67
2022/04/16 01:19:11;;;;;;;10.57;4.72;;;9.60;99.90;;;;;;4981726;28;20050;-67
2022/04/16 01:21:37;;;;;;;10.95;4.45;;;9.50;99.90;;;;;;4981191;28;20418;-66
2022/04/16 01:24:05;;;;;;;9.45;4.93;;;9.40;99.90;;;;;;4971674;28;20361;-67
2022/04/16 01:26:31;;;;;;;9.57;4.97;;;9.30;99.90;;;;;;4982200;28;20062;-67
2022/04/16 01:28:56;;;;;;;7.78;4.63;;;9.20;99.90;;;;;;4983272;28;20493;-67
2022/04/16 01:31:22;;;;;;;10.65;5.13;;;9.20;99.90;;;;;;5008615;22;20628;-61
2022/04/16 01:33:48;;;;;;;12.40;5.43;;;9.20;99.90;;;;;;4992928;28;20030;-61
2022/04/16 01:36:13;;;;;;;10.52;4.93;;;9.20;99.90;;;;;;4979618;28;20127;-61
2022/04/16 01:38:39;;;;;;;7.15;4.07;;;9.20;99.90;;;;;;4981259;28;20031;-61
2022/04/16 01:41:05;;;;;;;7.90;4.60;;;9.30;99.90;;;;;;4980459;28;20725;-63
2022/04/16 01:43:30;;;;;;;12.45;5.45;;;9.30;99.90;;;;;;4979014;28;20039;-62
2022/04/16 01:45:57;;;;;;;8.05;4.57;;;9.30;99.90;;;;;;4986788;28;20711;-61
2022/04/16 01:48:27;;;;;;;10.70;5.32;;;9.30;99.90;;;;;;4981312;28;20042;-61
2022/04/16 01:50:53;;;;;;;12.77;5.80;;;9.20;99.90;;;;;;4982020;28;20113;-62
2022/04/16 01:53:19;;;;;;;10.50;4.85;;;9.20;99.90;;;;;;4978472;28;20142;-61
2022/04/16 01:55:45;;;;;;;13.48;6.20;;;9.10;99.90;;;;;;4982009;28;20113;-64
2022/04/16 01:58:13;;;;;;;9.18;5.13;;;9.10;99.90;;;;;;4980025;28;20061;-62
2022/04/16 02:00:39;;;;;;;11.13;5.35;;;9.00;99.90;;;;;;4981375;28;20054;-60
2022/04/16 02:03:05;;;;;;;16.55;5.95;;;9.00;99.90;;;;;;4979030;28;20041;-61
2022/04/16 02:05:30;;;;;;;14.55;5.47;;;9.00;99.90;;;;;;4977814;28;20031;-61
2022/04/16 02:07:56;;;;;;;12.00;5.28;;;9.00;99.90;;;;;;4977022;28;20062;-61
2022/04/16 02:10:21;;;;;;;10.13;5.20;;;8.90;99.90;;;;;;4978857;28;20031;-61
2022/04/16 02:12:47;;;;;;;10.75;5.25;;;8.80;99.90;;;;;;4981181;28;20030;-60
2022/04/16 02:15:13;;;;;;;11.82;5.68;;;8.80;99.90;;;;;;4978845;28;20077;-62
2022/04/16 02:17:39;;;;;;;10.40;4.85;;;8.70;99.90;;;;;;4981413;28;20038;-62
2022/04/16 02:20:06;;;;;;;15.95;5.80;;;8.70;99.90;;;;;;4979508;28;20103;-61
2022/04/16 02:22:42;;;;;;;14.63;6.80;;;8.70;99.90;;;;;;4979536;28;20039;-61
2022/04/16 02:25:09;;;;;;;14.23;5.50;;;8.70;99.90;;;;;;4978910;28;20037;-62
2022/04/16 02:27:35;;;;;;;11.57;5.35;;;8.70;99.90;;;;;;4979001;28;20031;-61
2022/04/16 02:30:02;;;;;;;10.45;5.28;;;8.70;99.90;;;;;;4978704;28;20033;-61
2022/04/16 02:32:28;;;;;;;10.15;5.35;;;8.70;99.90;;;;;;4978423;28;20073;-60
2022/04/16 02:34:56;;;;;;;12.18;5.57;;;8.60;99.90;;;;;;4980461;28;20085;-62
2022/04/16 02:37:21;;;;;;;11.73;5.97;;;8.50;99.90;;;;;;4976994;28;20398;-60
2022/04/16 02:39:47;;;;;;;10.15;5.30;;;8.50;99.90;;;;;;4981245;28;20114;-61
2022/04/16 02:42:13;;;;;;;12.00;5.15;;;8.50;99.90;;;;;;4981206;28;20153;-62
2022/04/16 02:47:23;;;;;;;11.95;5.63;;;8.40;99.90;;;;;;4978119;28;20549;-60
2022/04/16 02:49:48;;;;;;;9.48;5.40;;;8.50;99.90;;;;;;4979670;28;20066;-61
2022/04/16 02:52:14;;;;;;;13.52;6.40;;;8.50;99.90;;;;;;4978051;28;20414;-61
2022/04/16 02:54:39;;;;;;;13.75;5.68;;;8.40;99.90;;;;;;4980135;28;20121;-61
2022/04/16 02:57:05;;;;;;;12.68;6.35;;;8.40;99.90;;;;;;4979107;28;20042;-61
2022/04/16 02:59:33;;;;;;;11.75;6.40;;;8.30;99.90;;;;;;4979338;28;20042;-61
2022/04/16 03:01:59;;;;;;;11.32;5.18;;;8.30;99.90;;;;;;4977973;28;20125;-61
2022/04/16 03:04:26;;;;;;;15.70;6.10;;;8.30;99.90;;;;;;4979210;28;20383;-62
2022/04/16 03:06:52;;;;;;;11.73;5.85;;;8.20;99.90;;;;;;4976540;28;20502;-61
2022/04/16 03:09:18;;;;;;;14.35;6.10;;;8.20;99.90;;;;;;4979860;28;20088;-62
2022/04/16 03:11:43;;;;;;;12.73;6.65;;;8.20;99.90;;;;;;4977932;28;20191;-62
2022/04/16 03:19:38;;;;;;;23.60;7.18;;;8.20;99.90;;;;;;4978168;28;20119;-61
2022/04/16 03:22:04;;;;;;;14.80;6.50;;;8.20;99.90;;;;;;4979249;28;20098;-62
2022/04/16 03:24:30;;;;;;;13.00;6.53;;;8.20;99.90;;;;;;4978593;28;20048;-61
2022/04/16 03:26:56;;;;;;;14.48;6.65;;;8.20;99.90;;;;;;4978202;28;20031;-62
2022/04/16 03:29:21;;;;;;;13.07;5.97;;;8.20;99.90;;;;;;4976888;28;20046;-62
2022/04/16 03:31:47;;;;;;;16.65;6.78;;;8.20;99.90;;;;;;4978778;28;20333;-62
2022/04/16 03:34:12;;;;;;;13.35;6.78;;;8.10;99.90;;;;;;4976700;28;20043;-61
2022/04/16 03:36:38;;;;;;;13.60;7.18;;;8.10;99.90;;;;;;4979743;28;20038;-62
2022/04/16 03:39:04;;;;;;;21.70;7.50;;;8.10;99.90;;;;;;4975913;28;20038;-62
2022/04/16 03:41:29;;;;;;;16.83;7.22;;;8.00;99.90;;;;;;4978752;28;20042;-62
2022/04/16 03:43:55;;;;;;;19.10;7.18;;;8.00;99.90;;;;;;4979027;28;20031;-61
2022/04/16 03:46:22;;;;;;;16.65;7.03;;;8.00;99.90;;;;;;4978983;28;20042;-62
2022/04/16 03:48:48;;;;;;;12.27;6.15;;;7.90;99.90;;;;;;4976687;28;20160;-62
2022/04/16 03:51:14;;;;;;;16.05;6.70;;;7.90;99.90;;;;;;4978835;28;20058;-62
2022/04/16 03:53:39;;;;;;;17.58;7.40;;;7.90;99.90;;;;;;4977421;28;20089;-62
2022/04/16 04:01:33;;;;;;;14.50;6.55;;;7.70;99.90;;;;;;4983249;28;20098;-62
2022/04/16 04:03:59;;;;;;;13.40;7.20;;;7.70;99.90;;;;;;4981100;28;20042;-62
2022/04/16 04:06:24;;;;;;;14.13;6.68;;;7.70;99.90;;;;;;4981701;28;20041;-63
2022/04/16 04:08:50;;;;;;;11.45;6.40;;;7.70;99.90;;;;;;4982664;28;20042;-62
2022/04/16 04:11:15;;;;;;;15.25;7.60;;;7.70;99.90;;;;;;4979402;28;20043;-62
2022/04/16 04:13:41;;;;;;;13.48;7.15;;;7.70;99.90;;;;;;4981548;28;20034;-62
2022/04/16 04:16:07;;;;;;;17.20;6.93;;;7.70;99.90;;;;;;4980373;28;20035;-61
2022/04/16 04:18:32;;;;;;;13.40;6.32;;;7.70;99.90;;;;;;4983116;28;20513;-60
2022/04/16 04:20:58;;;;;;;15.10;7.13;;;7.70;99.90;;;;;;4980153;28;20061;-61
2022/04/16 04:23:24;;;;;;;21.05;7.30;;;7.60;99.90;;;;;;4981091;28;20035;-61
2022/04/16 04:25:50;;;;;;;15.13;7.13;;;7.60;99.90;;;;;;4982503;28;20034;-61
2022/04/16 04:28:16;;;;;;;17.85;7.55;;;7.60;99.90;;;;;;4980874;28;20035;-61
2022/04/16 04:30:42;;;;;;;14.73;6.85;;;7.60;99.90;;;;;;4983626;28;20045;-60
2022/04/16 04:33:07;;;;;;;17.67;7.55;;;7.50;99.90;;;;;;4979206;28;20030;-60
2022/04/16 04:35:33;;;;;;;15.27;7.53;;;7.60;99.90;;;;;;4982326;28;20090;-60
2022/04/16 04:37:58;;;;;;;14.40;7.18;;;7.60;99.90;;;;;;4980863;28;20066;-61
2022/04/16 04:40:24;;;;;;;16.48;7.25;;;7.60;99.90;;;;;;4981002;28;20050;-60
2022/04/16 04:42:49;;;;;;;20.77;8.77;;;7.60;99.90;;;;;;4982386;28;20023;-61
2022/04/16 04:45:16;;;;;;;19.13;7.78;;;7.50;99.90;;;;;;4982858;28;20474;-60
2022/04/16 04:47:42;;;;;;;14.25;6.50;;;7.60;99.90;;;;;;4979933;28;20034;-61
2022/04/16 04:50:08;;;;;;;18.02;7.50;;;7.50;99.90;;;;;;4982865;28;20034;-61
2022/04/16 04:52:39;;;;;;;15.68;7.20;;;7.50;99.90;;;;;;4979962;28;20042;-60
2022/04/16 04:55:11;;;;;;;;;;;7.50;99.90;;;;;;4983624;28;20121;-61
2022/04/16 04:57:38;;;;;;;15.68;7.75;;;7.50;99.90;;;;;;4979723;28;19918;-60
2022/04/16 05:00:08;;;;;;;16.48;7.93;;;7.50;99.90;;;;;;4982428;28;20033;-61
2022/04/16 05:02:42;;;;;;;10.95;5.97;;;7.40;99.90;;;;;;4979250;28;20043;-61
2022/04/16 05:05:08;;;;;;;15.38;8.00;;;7.50;99.90;;;;;;4979398;28;20034;-61
2022/04/16 05:07:33;;;;;;;17.05;8.07;;;7.50;99.90;;;;;;4982518;28;20123;-61
2022/04/16 05:09:59;;;;;;;15.60;7.20;;;7.50;99.90;;;;;;4977382;28;20126;-61
2022/04/16 05:12:24;;;;;;;14.00;7.78;;;7.50;99.90;;;;;;4981095;28;20046;-60
2022/04/16 05:14:50;;;;;;;21.27;8.80;;;7.60;99.90;;;;;;4981065;28;20402;-61
2022/04/16 05:17:15;;;;;;;16.92;8.07;;;7.60;99.90;;;;;;4980080;28;20058;-61
2022/04/16 05:19:41;;;;;;;17.38;7.88;;;7.60;99.90;;;;;;4981309;28;20038;-61
2022/04/16 05:22:07;;;;;;;15.82;7.18;;;7.60;99.90;;;;;;4979198;28;20047;-61
2022/04/16 05:24:32;;;;;;;16.92;8.27;;;7.60;99.90;;;;;;4981903;28;20038;-61
2022/04/16 05:26:58;;;;;;;12.32;6.90;;;7.70;99.90;;;;;;4980405;28;20070;-60
2022/04/16 05:29:24;;;;;;;13.90;7.35;;;7.70;99.90;;;;;;4981764;28;20035;-61
2022/04/16 05:31:50;;;;;;;16.17;7.05;;;7.70;99.90;;;;;;4980705;28;20038;-61
2022/04/16 05:34:18;;;;;;;17.00;7.85;;;7.80;99.90;;;;;;4979284;28;20050;-61
2022/04/16 05:36:46;;;;;;;18.30;8.32;;;7.80;99.90;;;;;;4981842;28;20048;-61
2022/04/16 05:39:11;;;;;;;18.83;8.73;;;7.90;99.90;;;;;;4979323;28;20046;-60
2022/04/16 05:41:37;;;;;;;15.80;8.15;;;8.00;99.90;;;;;;4981072;28;20042;-61
2022/04/16 05:44:04;;;;;;;19.02;7.47;;;8.10;99.90;;;;;;4980479;28;20129;-60
2022/04/16 05:46:30;;;;;;;22.30;8.23;;;8.10;99.90;;;;;;4979017;28;20464;-61
2022/04/16 05:48:56;;;;;;;18.27;7.63;;;8.30;99.90;;;;;;4981317;28;20038;-61
2022/04/16 05:51:23;;;;;;;22.08;7.53;;;9.10;99.90;;;;;;4980808;28;20486;-61
2022/04/16 05:53:49;;;;;;;12.18;6.13;;;10.10;99.90;;;;;;4979879;28;20027;-61
2022/04/16 05:56:17;;;;;;;16.33;6.60;;;11.30;99.90;;;;;;4982273;28;20049;-61
2022/04/16 05:58:43;;;;;;;13.93;6.15;;;12.20;99.90;;;;;;4980182;28;20027;-62
2022/04/16 06:01:09;;;;;;;12.50;6.93;;;12.90;99.90;;;;;;4981384;28;20030;-61
2022/04/16 06:03:42;;;;;;;16.02;6.38;;;13.40;99.90;;;;;;4978616;28;20144;-62
2022/04/16 06:06:11;;;;;;;13.18;5.90;;;13.80;99.90;;;;;;4978476;28;20035;-61
2022/04/16 06:08:37;;;;;;;14.73;6.00;;;14.40;99.90;;;;;;4981092;28;20454;-64
2022/04/16 06:11:07;;;;;;;11.77;6.03;;;14.50;99.90;;;;;;4980656;28;20026;-62
2022/04/16 06:13:33;;;;;;;14.35;6.15;;;14.80;99.90;;;;;;4978185;28;20040;-62
2022/04/16 06:15:59;;;;;;;10.15;5.90;;;15.30;99.90;;;;;;4981032;28;20396;-60
2022/04/16 06:18:25;;;;;;;10.52;5.60;;;15.10;99.90;;;;;;4977963;28;20064;-62
2022/04/16 06:20:50;;;;;;;10.10;5.32;;;15.60;99.90;;;;;;4978993;28;20043;-63
2022/04/16 06:23:22;;;;;;;13.80;6.00;;;15.90;99.90;;;;;;4978960;28;20035;-60
2022/04/16 06:25:48;;;;;;;10.80;5.18;;;16.20;99.90;;;;;;4977501;28;20046;-62
2022/04/16 06:28:14;;;;;;;10.88;6.28;;;16.20;99.90;;;;;;4980588;28;20034;-62
2022/04/16 06:30:39;;;;;;;12.45;6.40;;;16.40;99.90;;;;;;4978198;28;20061;-61
2022/04/16 06:33:05;;;;;;;9.32;5.45;;;16.70;99.90;;;;;;4980724;28;20371;-61
2022/04/16 06:35:31;;;;;;;10.80;5.57;;;16.90;99.90;;;;;;4976701;28;20046;-60
2022/04/16 06:37:56;;;;;;;10.63;5.78;;;17.20;99.90;;;;;;4978706;28;20048;-61
2022/04/16 06:40:22;;;;;;;12.55;6.00;;;17.10;99.10;;;;;;4977492;28;20077;-62
2022/04/16 06:42:48;;;;;;;11.40;5.70;;;17.40;99.00;;;;;;4978551;28;20058;-62
2022/04/16 06:45:14;;;;;;;11.95;5.47;;;17.50;98.30;;;;;;4977771;28;20121;-62
2022/04/16 06:47:40;;;;;;;10.52;5.35;;;17.70;98.60;;;;;;4975784;28;20117;-62
2022/04/16 06:50:07;;;;;;;12.38;6.00;;;17.50;97.70;;;;;;4972248;28;20414;-60
2022/04/16 06:52:33;;;;;;;12.10;5.85;;;17.30;98.20;;;;;;4981755;28;20397;-62
2022/04/16 06:54:59;;;;;;;11.88;6.25;;;17.00;98.60;;;;;;4987252;28;20030;-61
2022/04/16 06:57:27;;;;;;;11.07;6.22;;;17.00;99.20;;;;;;4986665;28;20949;-61
2022/04/16 06:59:53;;;;;;;9.95;5.68;;;17.30;98.60;;;;;;4984187;28;20398;-61
2022/04/16 07:02:19;;;;;;;11.07;6.50;;;17.50;98.30;;;;;;4988448;28;20045;-61
2022/04/16 07:04:45;;;;;;;9.02;5.07;;;17.70;97.40;;;;;;4986508;28;20494;-61
2022/04/16 07:07:10;;;;;;;11.13;5.82;;;17.70;97.30;;;;;;4986174;28;20069;-62
2022/04/16 07:09:39;;;;;;;11.40;6.45;;;18.10;97.00;;;;;;4985909;28;20104;-61
2022/04/16 07:12:07;;;;;;;12.15;6.50;;;17.70;96.50;;;;;;4990389;28;20038;-61
2022/04/16 07:14:33;;;;;;;10.27;5.72;;;17.60;96.90;;;;;;4986781;28;20117;-62
2022/04/16 07:17:00;;;;;;;10.68;5.68;;;17.40;97.20;;;;;;4985416;28;20030;-61
2022/04/16 07:19:26;;;;;;;11.45;6.03;;;17.10;97.80;;;;;;4987330;28;20034;-62
2022/04/16 07:21:51;;;;;;;12.43;6.47;;;16.90;97.90;;;;;;4990062;28;20089;-62
2022/04/16 07:24:17;;;;;;;12.07;6.60;;;16.40;98.80;;;;;;4986614;28;20046;-61
2022/04/16 07:26:42;;;;;;;14.30;5.90;;;16.10;99.60;;;;;;4988898;28;20915;-61
2022/04/16 07:29:08;;;;;;;13.00;6.65;;;15.70;99.90;;;;;;4986901;28;20694;-61
2022/04/16 07:31:33;;;;;;;11.50;5.63;;;15.40;99.90;;;;;;4990696;28;20115;-61
2022/04/16 07:33:59;;;;;;;13.52;5.72;;;15.10;99.90;;;;;;4984055;28;20065;-60
2022/04/16 07:36:24;;;;;;;11.77;6.40;;;14.80;99.90;;;;;;4990937;28;20034;-62
2022/04/16 07:38:50;;;;;;;15.15;6.70;;;14.70;99.90;;;;;;4990514;28;20034;-63
2022/04/16 07:41:15;;;;;;;13.98;6.53;;;14.60;99.90;;;;;;4991180;28;20581;-63
2022/04/16 07:43:41;;;;;;;12.77;6.65;;;14.60;99.90;;;;;;4986471;28;20428;-62
2022/04/16 07:46:06;;;;;;;11.40;5.82;;;14.50;99.90;;;;;;4981258;28;20030;-62
2022/04/16 07:48:33;;;;;;;14.13;6.38;;;14.70;99.90;;;;;;4978558;28;20098;-61
2022/04/16 07:50:58;;;;;;;13.75;6.32;;;14.60;99.90;;;;;;4982401;28;20109;-62
2022/04/16 07:53:24;;;;;;;13.43;6.55;;;14.50;99.90;;;;;;4978477;28;20117;-60
2022/04/16 07:55:49;;;;;;;14.70;6.75;;;14.40;99.90;;;;;;4981604;28;20019;-62
2022/04/16 07:58:15;;;;;;;10.85;6.22;;;14.30;99.90;;;;;;4981888;28;20039;-63
2022/04/16 08:00:40;;;;;;;16.88;7.70;;;14.20;99.90;;;;;;4981119;28;20030;-61
2022/04/16 08:03:06;;;;;;;13.85;7.07;;;14.10;99.90;;;;;;4981939;28;20573;-61
2022/04/16 08:05:32;;;;;;;14.32;6.60;;;14.10;99.90;;;;;;4978055;28;20265;-63
2022/04/16 08:07:57;;;;;;;14.93;7.18;;;14.10;99.90;;;;;;4977323;28;20046;-62
2022/04/16 08:10:23;;;;;;;15.52;6.72;;;14.20;99.90;;;;;;4979387;28;20034;-60
2022/04/16 08:12:49;;;;;;;11.82;6.25;;;14.20;99.90;;;;;;4980229;28;20113;-61
2022/04/16 08:15:14;;;;;;;12.13;6.53;;;14.30;99.90;;;;;;4980873;28;20034;-62
2022/04/16 08:17:40;;;;;;;13.60;7.53;;;14.20;99.90;;;;;;4980640;28;20102;-63
2022/04/16 08:20:07;;;;;;;14.45;6.80;;;14.10;99.90;;;;;;4982831;28;20537;-62
2022/04/16 08:22:34;;;;;;;13.75;6.97;;;14.30;99.90;;;;;;4980464;28;20039;-62
2022/04/16 08:25:46;;;;;;;11.20;6.07;;;14.30;99.90;;;;;;4982433;28;20773;-61
2022/04/16 08:27:48;;;;;;;14.98;6.90;;;14.30;99.90;;;;;;4974887;28;20030;-61
2022/04/16 08:30:15;;;;;;;11.57;6.53;;;14.40;99.90;;;;;;4981809;28;20114;-64
2022/04/16 08:32:42;;;;;;;17.70;6.82;;;14.60;99.90;;;;;;4981571;28;20042;-60
2022/04/16 08:35:13;;;;;;;11.55;6.60;;;14.70;99.90;;;;;;4982304;28;20122;-63
2022/04/16 08:37:40;;;;;;;13.32;6.13;;;14.80;99.90;;;;;;4982707;28;20141;-61
2022/04/16 08:40:06;;;;;;;14.52;5.85;;;15.00;99.90;;;;;;4980479;28;20035;-63
2022/04/16 08:42:37;;;;;;;11.45;5.65;;;14.90;99.90;;;;;;4984600;28;20133;-63
2022/04/16 08:45:04;;;;;;;;;;;15.10;99.90;;;;;;4978370;28;20126;-62
2022/04/16 08:47:29;;;;;;;10.50;5.35;;;15.20;99.90;;;;;;4983097;28;20000;-61
2022/04/16 08:49:56;;;;;;;11.52;5.75;;;15.20;99.90;;;;;;4979394;28;20133;-61
2022/04/16 08:52:30;;;;;;;13.35;5.78;;;15.20;99.90;;;;;;4984690;28;20038;-61
2022/04/16 08:54:57;;;;;;;12.45;5.65;;;15.20;99.90;;;;;;4986962;28;20452;-61
2022/04/16 08:57:22;;;;;;;10.73;5.22;;;15.50;99.90;;;;;;4989038;28;20034;-61
2022/04/16 08:59:52;;;;;;;12.13;5.57;;;15.40;99.90;;;;;;4985894;28;20410;-61
2022/04/16 09:02:22;;;;;;;13.43;5.90;;;15.50;99.90;;;;;;4981641;28;20066;-62
2022/04/16 09:05:00;;;;;;;;;;;15.60;99.90;;;;;;4989519;28;20116;-59
2022/04/16 09:07:25;;;;;;;9.73;5.32;;;15.80;99.90;;;;;;4987708;28;19914;-62
2022/04/16 09:09:51;;;;;;;15.93;6.00;;;15.90;99.90;;;;;;4988991;28;20041;-61
2022/04/16 09:12:20;;;;;;;8.35;4.53;;;16.00;99.90;;;;;;4989085;28;22046;-61
2022/04/16 09:14:46;;;;;;;8.35;4.93;;;16.10;99.90;;;;;;4988881;28;20035;-61
2022/04/16 09:17:19;;;;;;;14.68;5.00;;;16.30;99.90;;;;;;4981241;28;20045;-62
2022/04/16 09:19:54;;;;;;;9.85;5.32;;;16.40;99.90;;;;;;4977857;28;20077;-61
2022/04/16 09:22:39;;;;;;;11.10;6.32;;;16.40;99.90;;;;;;4983050;28;20093;-61
2022/04/16 09:25:15;;;;;;;10.98;4.70;;;16.50;99.90;;;;;;4978739;28;20046;-60
2022/04/16 09:27:46;;;;;;;10.68;4.85;;;16.60;99.90;;;;;;4980636;28;20038;-62
2022/04/16 09:30:22;;;;;;;9.65;4.68;;;16.50;99.90;;;;;;4978804;28;20487;-60
2022/04/16 09:32:48;;;;;;;11.00;4.72;;;16.40;99.90;;;;;;4980596;28;20500;-61
2022/04/16 09:35:33;;;;;;;10.73;5.32;;;16.40;99.90;;;;;;4978901;28;20125;-60
2022/04/16 09:38:00;;;;;;;10.95;5.28;;;16.30;99.90;;;;;;4981971;28;20044;-61
2022/04/16 09:40:28;;;;;;;12.10;4.72;;;16.30;99.90;;;;;;4978319;28;20555;-62
2022/04/16 09:42:56;;;;;;;13.10;4.57;;;16.30;99.90;;;;;;4980754;28;20573;-62
2022/04/16 09:45:22;;;;;;;9.70;4.85;;;16.50;99.90;;;;;;4981613;28;20115;-61
2022/04/16 09:47:49;;;;;;;9.02;5.53;;;16.60;99.90;;;;;;4977219;28;20506;-63
2022/04/16 09:50:17;;;;;;;9.50;4.32;;;16.60;99.90;;;;;;4980548;28;20034;-61
2022/04/16 09:52:43;;;;;;;7.97;4.30;;;16.70;99.90;;;;;;4978033;28;20038;-61
2022/04/16 09:55:10;;;;;;;7.15;3.75;;;16.60;99.00;;;;;;4979276;28;20104;-61
2022/04/16 09:57:39;;;;;;;8.55;4.60;;;16.50;99.20;;;;;;4975916;28;20038;-61
2022/04/16 10:00:05;;;;;;;6.38;3.50;;;16.70;99.10;;;;;;4976307;28;20028;-61
2022/04/16 10:02:33;;;;;;;8.75;4.15;;;16.80;98.10;;;;;;4976760;28;20046;-61
2022/04/16 10:04:59;;;;;;;6.95;3.53;;;16.90;97.80;;;;;;4975560;28;20106;-61
2022/04/16 10:07:26;;;;;;;6.63;3.42;;;16.90;97.50;;;;;;4976706;28;20103;-61
2022/04/16 10:09:55;;;;;;;8.70;4.32;;;16.70;97.90;;;;;;4976996;28;20100;-61
2022/04/16 10:15:11;;;;;;;5.03;2.60;;;16.30;97.50;;;;;;4979739;28;20490;-61
2022/04/16 10:17:46;;;;;;;6.80;2.70;;;16.30;97.50;;;;;;4980022;28;20846;-64
2022/04/16 10:20:16;;;;;;;11.48;3.67;;;16.40;97.70;;;;;;4984105;28;20112;-61
2022/04/16 10:23:03;;;;;;;8.18;3.67;;;16.20;98.20;;;;;;4975910;28;20043;-63
2022/04/16 10:25:40;;;;;;;7.63;3.58;;;16.10;98.00;;;;;;4976029;28;20082;-62
2022/04/16 10:28:08;;;;;;;5.78;3.28;;;16.20;98.20;;;;;;4977583;28;20042;-62
2022/04/16 10:30:41;;;;;;;6.30;3.20;;;16.30;97.70;;;;;;4979257;28;20030;-61
2022/04/16 10:33:20;;;;;;;9.85;3.38;;;16.40;97.20;;;;;;4979830;28;20478;-62
2022/04/16 10:35:54;;;;;;;6.20;2.72;;;16.60;98.10;;;;;;4978716;28;20635;-61
2022/04/16 10:38:40;;;;;;;6.68;3.10;;;16.70;97.60;;;;;;4975292;28;20041;-61
2022/04/16 10:41:11;;;;;;;5.50;2.85;;;17.00;97.60;;;;;;4977514;28;20038;-64
2022/04/16 10:43:37;;;;;;;7.40;3.20;;;17.20;96.50;;;;;;4978820;28;20537;-62
2022/04/16 10:46:09;;;;;;;7.55;2.85;;;17.30;96.00;;;;;;4977543;28;20102;-62
2022/04/16 10:48:37;;;;;;;5.95;2.38;;;17.30;94.50;;;;;;4978712;28;20034;-63
2022/04/16 10:51:03;;;;;;;6.57;2.55;;;17.20;94.60;;;;;;4977962;28;20035;-63
2022/04/16 10:53:34;;;;;;;4.53;2.00;;;17.10;94.70;;;;;;4978914;28;20034;-62
2022/04/16 10:56:12;;;;;;;4.00;2.42;;;17.00;94.00;;;;;;4977580;28;20058;-61
2022/04/16 10:58:42;;;;;;;4.63;2.05;;;16.90;94.30;;;;;;4978999;28;20490;-61
2022/04/16 11:01:12;;;;;;;4.68;2.40;;;16.80;95.60;;;;;;4978715;28;20042;-61
2022/04/16 11:03:48;;;;;;;4.60;2.13;;;16.90;93.70;;;;;;4976728;28;20138;-62
2022/04/16 11:06:16;;;;;;;4.85;2.35;;;17.00;93.60;;;;;;4980727;28;20064;-62
2022/04/16 11:08:42;;;;;;;3.17;1.40;;;17.10;93.60;;;;;;4978991;28;20534;-62
2022/04/16 11:11:12;;;;;;;2.28;1.17;;;17.00;92.50;;;;;;4976941;28;20045;-61
2022/04/16 11:13:39;;;;;;;2.73;1.60;;;16.80;91.60;;;;;;4978707;28;20038;-62
2022/04/16 11:16:06;;;;;;;4.47;1.88;;;16.70;92.60;;;;;;4977906;28;20056;-63
2022/04/16 11:18:45;;;;;;;3.58;1.85;;;16.70;92.30;;;;;;4978836;28;20175;-63
2022/04/16 11:21:22;;;;;;;3.13;1.75;;;16.70;92.50;;;;;;4977143;28;20133;-60
2022/04/16 11:23:52;;;;;;;4.28;2.22;;;16.60;92.60;;;;;;4979090;28;20092;-65
2022/04/16 11:34:45;;;;;;;4.22;1.77;;;16.80;90.90;;;;;;4977391;28;20126;-63
2022/04/16 11:37:13;;;;;;;3.95;1.60;;;16.70;91.30;;;;;;4979229;28;20150;-62
2022/04/16 11:39:38;;;;;;;4.10;1.70;;;16.60;91.10;;;;;;4978235;28;20049;-63
2022/04/16 11:42:07;;;;;;;4.85;1.80;;;16.50;91.40;;;;;;4979849;28;20035;-63
2022/04/16 11:44:43;;;;;;;3.88;1.85;;;16.50;92.10;;;;;;4975448;28;20070;-63
2022/04/16 11:47:12;;;;;;;3.25;1.83;;;16.50;92.00;;;;;;4977397;28;20403;-62
2022/04/16 11:49:40;;;;;;;2.92;1.75;;;16.40;91.70;;;;;;4980014;28;20069;-63
2022/04/16 11:52:06;;;;;;;4.43;1.50;;;16.40;91.90;;;;;;4977496;28;20054;-63
2022/04/16 11:54:32;;;;;;;4.40;1.75;;;16.40;92.30;;;;;;4977899;28;20077;-63
2022/04/16 11:56:58;;;;;;;2.92;1.50;;;16.60;92.20;;;;;;4977154;28;20062;-62
2022/04/16 11:59:28;;;;;;;3.03;1.60;;;16.60;91.70;;;;;;4978445;28;20074;-62
2022/04/16 12:02:08;;;;;;;4.20;1.70;;;16.60;91.20;;;;;;4978650;28;20097;-63
2022/04/16 12:04:35;;;;;;;3.55;2.03;;;16.60;91.10;;;;;;4976965;28;20039;-62
2022/04/16 12:07:01;;;;;;;2.88;1.60;;;16.50;90.80;;;;;;4978418;28;20034;-61
2022/04/16 12:09:26;;;;;;;3.42;1.83;;;16.50;90.70;;;;;;4978603;28;20105;-61
2022/04/16 12:11:55;;;;;;;3.85;1.95;;;16.50;90.50;;;;;;4979262;28;20057;-61
2022/04/16 12:14:23;;;;;;;2.70;1.77;;;16.50;90.40;;;;;;4977795;28;20050;-61
2022/04/16 12:16:58;;;;;;;2.25;1.52;;;16.40;91.00;;;;;;4982986;28;20517;-60
2022/04/16 12:19:27;;;;;;;3.72;1.67;;;16.50;91.20;;;;;;4980181;28;20046;-62
2022/04/16 12:21:52;;;;;;;3.15;1.55;;;16.60;91.40;;;;;;4981540;28;20077;-62
2022/04/16 12:24:28;;;;;;;4.60;1.73;;;16.70;91.10;;;;;;4979683;28;20479;-61
2022/04/16 12:26:55;;;;;;;4.72;1.55;;;16.80;90.80;;;;;;4981812;28;20084;-63
2022/04/16 12:29:29;;;;;;;3.47;1.73;;;16.80;90.10;;;;;;4980741;28;20093;-60
2022/04/16 12:31:58;;;;;;;4.03;1.52;;;16.80;90.20;;;;;;4981018;28;20052;-63
2022/04/16 12:34:25;;;;;;;3.47;1.70;;;16.80;90.80;;;;;;4979444;28;20038;-62
2022/04/16 12:36:51;;;;;;;3.45;1.60;;;16.80;90.00;;;;;;4980186;28;20030;-60
2022/04/16 12:39:16;;;;;;;2.80;1.48;;;16.90;90.10;;;;;;4980127;28;20395;-62
2022/04/16 12:41:42;;;;;;;3.47;1.80;;;16.90;90.30;;;;;;4983044;28;20137;-61
2022/04/16 12:44:08;;;;;;;2.83;1.42;;;16.90;89.00;;;;;;4981679;28;20066;-60
2022/04/16 12:46:33;;;;;;;3.63;2.10;;;16.90;88.80;;;;;;4980811;28;20490;-63
2022/04/16 12:48:59;;;;;;;4.63;1.70;;;16.90;89.10;;;;;;4981222;28;20031;-62
2022/04/16 12:51:24;;;;;;;3.03;1.60;;;16.90;86.90;;;;;;4982314;28;20049;-61
2022/04/16 12:53:50;;;;;;;3.47;1.98;;;16.90;86.50;;;;;;4978775;28;20093;-62
2022/04/16 12:56:16;;;;;;;5.75;2.05;;;16.80;86.20;;;;;;4982960;28;20035;-64
2022/04/16 12:58:41;;;;;;;6.75;2.17;;;16.70;87.40;;;;;;4980045;28;20027;-61
2022/04/16 13:01:07;;;;;;;3.22;1.52;;;16.60;88.60;;;;;;4982654;28;20559;-61
2022/04/16 13:03:32;;;;;;;4.00;1.80;;;16.40;88.10;;;;;;4979739;28;20069;-63
2022/04/16 13:05:58;;;;;;;2.70;1.40;;;16.50;89.10;;;;;;4983104;28;20142;-62
2022/04/16 13:08:24;;;;;;;6.00;1.70;;;16.50;88.80;;;;;;4981601;28;20045;-62
2022/04/16 13:10:50;;;;;;;4.10;1.88;;;16.60;89.60;;;;;;4979828;28;20035;-63